sensor_id;sensor_type;location;lat;lon;timestamp;temperature;humidity
18173;DHT22;9211;48.818;9.312;2022-08-19T00:00:18;22.80;99.90
18173;DHT22;9211;48.818;9.312;2022-08-19T00:02:45;22.70;99.90
18173;DHT22;9211;48.818;9.312;2022-08-19T00:05:14;22.70;99.90
18173;DHT22;9211;48.818;9.312;2022-08-19T00:07:41;22.70;99.90
18173;DHT22;9211;48.818;9.312;2022-08-19T00:10:10;22.70;99.90
18173;DHT22;9211;48.818;9.312;2022-08-19T00:12:39;22.70;99.90
18173;DHT22;9211;48.818;9.312;2022-08-19T00:15:08;22.60;99.90
18173;DHT22;9211;48.818;9.312;2022-08-19T00:17:37;22.60;99.90
18173;DHT22;9211;48.818;9.312;2022-08-19T00:20:05;22.60;99.90
18173;DHT22;9211;48.818;9.312;2022-08-19T00:22:33;22.60;99.90
18173;DHT22;9211;48.818;9.312;2022-08-19T00:25:00;22.50;99.90
18173;DHT22;9211;48.818;9.312;2022-08-19T00:27:27;22.50;99.90
18173;DHT22;9211;48.818;9.312;2022-08-19T00:29:55;22.50;99.90
18173;DHT22;9211;48.818;9.312;2022-08-19T00:32:24;22.50;99.90
18173;DHT22;9211;48.818;9.312;2022-08-19T00:34:51;22.40;99.90
18173;DHT22;9211;48.818;9.312;2022-08-19T00:37:19;22.40;99.90
18173;DHT22;9211;48.818;9.312;2022-08-19T00:39:48;22.40;99.90
18173;DHT22;9211;48.818;9.312;2022-08-19T00:42:17;22.40;99.90
18173;DHT22;9211;48.818;9.312;2022-08-19T00:44:46;22.40;99.90
18173;DHT22;9211;48.818;9.312;2022-08-19T00:47:14;22.40;99.90
18173;DHT22;9211;48.818;9.312;2022-08-19T00:49:44;22.40;99.90
18173;DHT22;9211;48.818;9.312;2022-08-19T00:52:18;22.40;99.90
18173;DHT22;9211;48.818;9.312;2022-08-19T00:54:47;22.40;99.90
18173;DHT22;9211;48.818;9.312;2022-08-19T00:57:16;22.40;99.90
18173;DHT22;9211;48.818;9.312;2022-08-19T00:59:47;22.30;99.90
18173;DHT22;9211;48.818;9.312;2022-08-19T01:02:16;22.30;99.90
18173;DHT22;9211;48.818;9.312;2022-08-19T01:04:43;22.30;99.90
18173;DHT22;9211;48.818;9.312;2022-08-19T01:07:10;22.30;99.90
18173;DHT22;9211;48.818;9.312;2022-08-19T01:09:38;22.30;99.90
18173;DHT22;9211;48.818;9.312;2022-08-19T01:12:06;22.20;99.90
18173;DHT22;9211;48.818;9.312;2022-08-19T01:14:33;22.20;99.90
18173;DHT22;9211;48.818;9.312;2022-08-19T01:17:01;22.30;99.90
18173;DHT22;9211;48.818;9.312;2022-08-19T01:19:33;22.30;99.90
18173;DHT22;9211;48.818;9.312;2022-08-19T01:22:06;22.30;99.90
18173;DHT22;9211;48.818;9.312;2022-08-19T01:24:36;22.30;99.90
18173;DHT22;9211;48.818;9.312;2022-08-19T01:27:04;22.30;99.90
18173;DHT22;9211;48.818;9.312;2022-08-19T01:29:31;22.30;99.90
18173;DHT22;9211;48.818;9.312;2022-08-19T01:31:58;22.20;99.90
18173;DHT22;9211;48.818;9.312;2022-08-19T01:34:27;22.20;99.90
18173;DHT22;9211;48.818;9.312;2022-08-19T01:36:54;22.20;99.90
18173;DHT22;9211;48.818;9.312;2022-08-19T01:39:23;22.20;99.90
18173;DHT22;9211;48.818;9.312;2022-08-19T01:41:52;22.20;99.90
18173;DHT22;9211;48.818;9.312;2022-08-19T01:44:20;22.20;99.90
18173;DHT22;9211;48.818;9.312;2022-08-19T01:46:50;22.10;99.90
18173;DHT22;9211;48.818;9.312;2022-08-19T01:49:19;22.10;99.90
18173;DHT22;9211;48.818;9.312;2022-08-19T01:51:47;22.10;99.90
18173;DHT22;9211;48.818;9.312;2022-08-19T01:54:16;22.10;99.90
18173;DHT22;9211;48.818;9.312;2022-08-19T01:56:44;22.10;99.90
18173;DHT22;9211;48.818;9.312;2022-08-19T01:59:15;22.10;99.90
18173;DHT22;9211;48.818;9.312;2022-08-19T02:01:43;22.10;99.90
18173;DHT22;9211;48.818;9.312;2022-08-19T02:04:10;22.10;99.90
18173;DHT22;9211;48.818;9.312;2022-08-19T02:06:37;22.10;99.90
18173;DHT22;9211;48.818;9.312;2022-08-19T02:09:06;22.10;99.90
18173;DHT22;9211;48.818;9.312;2022-08-19T02:11:35;22.00;99.90
18173;DHT22;9211;48.818;9.312;2022-08-19T02:14:05;22.00;99.90
18173;DHT22;9211;48.818;9.312;2022-08-19T02:16:34;22.00;99.90
18173;DHT22;9211;48.818;9.312;2022-08-19T02:19:02;22.00;99.90
18173;DHT22;9211;48.818;9.312;2022-08-19T02:21:30;21.90;99.90
18173;DHT22;9211;48.818;9.312;2022-08-19T02:23:57;22.00;99.90
18173;DHT22;9211;48.818;9.312;2022-08-19T02:26:25;21.90;99.90
18173;DHT22;9211;48.818;9.312;2022-08-19T02:28:53;21.90;99.90
18173;DHT22;9211;48.818;9.312;2022-08-19T02:31:23;21.90;99.90
18173;DHT22;9211;48.818;9.312;2022-08-19T02:33:51;21.90;99.90
18173;DHT22;9211;48.818;9.312;2022-08-19T02:36:19;21.90;99.90
18173;DHT22;9211;48.818;9.312;2022-08-19T02:38:46;21.80;99.90
18173;DHT22;9211;48.818;9.312;2022-08-19T02:41:17;21.80;99.90
18173;DHT22;9211;48.818;9.312;2022-08-19T02:43:44;21.80;99.90
18173;DHT22;9211;48.818;9.312;2022-08-19T02:46:17;21.70;99.90
18173;DHT22;9211;48.818;9.312;2022-08-19T02:48:47;21.70;99.90
18173;DHT22;9211;48.818;9.312;2022-08-19T02:51:18;21.70;99.90
18173;DHT22;9211;48.818;9.312;2022-08-19T02:53:46;21.70;99.90
18173;DHT22;9211;48.818;9.312;2022-08-19T02:56:13;21.70;99.90
18173;DHT22;9211;48.818;9.312;2022-08-19T02:58:40;21.60;99.90
18173;DHT22;9211;48.818;9.312;2022-08-19T03:01:09;21.70;99.90
18173;DHT22;9211;48.818;9.312;2022-08-19T03:03:36;21.60;99.90
18173;DHT22;9211;48.818;9.312;2022-08-19T03:06:06;21.60;99.90
18173;DHT22;9211;48.818;9.312;2022-08-19T03:08:35;21.60;99.90
18173;DHT22;9211;48.818;9.312;2022-08-19T03:11:03;21.50;99.90
18173;DHT22;9211;48.818;9.312;2022-08-19T03:13:31;21.50;99.90
18173;DHT22;9211;48.818;9.312;2022-08-19T03:15:58;21.50;99.90
18173;DHT22;9211;48.818;9.312;2022-08-19T03:18:25;21.50;99.90
18173;DHT22;9211;48.818;9.312;2022-08-19T03:20:54;21.50;99.90
18173;DHT22;9211;48.818;9.312;2022-08-19T03:23:22;21.50;99.90
18173;DHT22;9211;48.818;9.312;2022-08-19T03:25:52;21.40;99.90
18173;DHT22;9211;48.818;9.312;2022-08-19T03:28:20;21.50;99.90
18173;DHT22;9211;48.818;9.312;2022-08-19T03:30:57;21.40;99.90
18173;DHT22;9211;48.818;9.312;2022-08-19T03:33:25;21.40;99.90
18173;DHT22;9211;48.818;9.312;2022-08-19T03:36:08;21.40;99.90
18173;DHT22;9211;48.818;9.312;2022-08-19T03:38:37;21.40;99.90
18173;DHT22;9211;48.818;9.312;2022-08-19T03:41:08;21.40;99.90
18173;DHT22;9211;48.818;9.312;2022-08-19T03:43:37;21.40;99.90
18173;DHT22;9211;48.818;9.312;2022-08-19T03:46:07;21.40;99.90
18173;DHT22;9211;48.818;9.312;2022-08-19T03:48:35;21.40;99.90
18173;DHT22;9211;48.818;9.312;2022-08-19T03:51:02;21.30;99.90
18173;DHT22;9211;48.818;9.312;2022-08-19T03:53:30;21.40;99.90
18173;DHT22;9211;48.818;9.312;2022-08-19T03:55:58;21.30;99.90
18173;DHT22;9211;48.818;9.312;2022-08-19T03:58:28;21.30;99.90
18173;DHT22;9211;48.818;9.312;2022-08-19T04:00:56;21.30;99.90
18173;DHT22;9211;48.818;9.312;2022-08-19T04:03:23;21.30;99.90
18173;DHT22;9211;48.818;9.312;2022-08-19T04:05:50;21.30;99.90
18173;DHT22;9211;48.818;9.312;2022-08-19T04:08:17;21.20;99.90
18173;DHT22;9211;48.818;9.312;2022-08-19T04:10:46;21.20;99.90
18173;DHT22;9211;48.818;9.312;2022-08-19T04:13:13;21.20;99.90
18173;DHT22;9211;48.818;9.312;2022-08-19T04:15:43;21.30;99.90
18173;DHT22;9211;48.818;9.312;2022-08-19T04:18:12;21.20;99.90
18173;DHT22;9211;48.818;9.312;2022-08-19T04:20:41;21.20;99.90
18173;DHT22;9211;48.818;9.312;2022-08-19T04:23:08;21.20;99.90
18173;DHT22;9211;48.818;9.312;2022-08-19T04:25:37;21.20;99.90
18173;DHT22;9211;48.818;9.312;2022-08-19T04:28:04;21.20;99.90
18173;DHT22;9211;48.818;9.312;2022-08-19T04:30:38;21.10;99.90
18173;DHT22;9211;48.818;9.312;2022-08-19T04:33:06;21.10;99.90
18173;DHT22;9211;48.818;9.312;2022-08-19T04:35:38;21.10;99.90
18173;DHT22;9211;48.818;9.312;2022-08-19T04:38:06;21.10;99.90
18173;DHT22;9211;48.818;9.312;2022-08-19T04:40:33;21.10;99.90
18173;DHT22;9211;48.818;9.312;2022-08-19T04:43:18;21.10;99.90
18173;DHT22;9211;48.818;9.312;2022-08-19T04:45:45;21.10;99.90
18173;DHT22;9211;48.818;9.312;2022-08-19T04:48:14;21.10;99.90
18173;DHT22;9211;48.818;9.312;2022-08-19T04:50:42;21.10;99.90
18173;DHT22;9211;48.818;9.312;2022-08-19T04:53:10;21.10;99.90
18173;DHT22;9211;48.818;9.312;2022-08-19T04:55:41;21.10;99.90
18173;DHT22;9211;48.818;9.312;2022-08-19T04:58:08;21.00;99.90
18173;DHT22;9211;48.818;9.312;2022-08-19T05:00:38;21.10;99.90
18173;DHT22;9211;48.818;9.312;2022-08-19T05:03:05;21.10;99.90
18173;DHT22;9211;48.818;9.312;2022-08-19T05:05:37;21.10;99.90
18173;DHT22;9211;48.818;9.312;2022-08-19T05:08:04;21.10;99.90
18173;DHT22;9211;48.818;9.312;2022-08-19T05:10:35;21.00;99.90
18173;DHT22;9211;48.818;9.312;2022-08-19T05:13:02;21.00;99.90
18173;DHT22;9211;48.818;9.312;2022-08-19T05:15:30;21.10;99.90
18173;DHT22;9211;48.818;9.312;2022-08-19T05:17:57;21.10;99.90
18173;DHT22;9211;48.818;9.312;2022-08-19T05:20:43;21.10;99.90
18173;DHT22;9211;48.818;9.312;2022-08-19T05:23:27;21.10;99.90
18173;DHT22;9211;48.818;9.312;2022-08-19T05:25:54;21.10;99.90
18173;DHT22;9211;48.818;9.312;2022-08-19T05:28:21;21.10;99.90
18173;DHT22;9211;48.818;9.312;2022-08-19T05:30:48;21.10;99.90
18173;DHT22;9211;48.818;9.312;2022-08-19T05:33:16;21.20;99.90
18173;DHT22;9211;48.818;9.312;2022-08-19T05:35:45;21.20;99.90
18173;DHT22;9211;48.818;9.312;2022-08-19T05:38:13;21.10;99.90
18173;DHT22;9211;48.818;9.312;2022-08-19T05:40:41;21.10;99.90
18173;DHT22;9211;48.818;9.312;2022-08-19T05:43:11;21.20;99.90
18173;DHT22;9211;48.818;9.312;2022-08-19T05:45:42;21.20;99.90
18173;DHT22;9211;48.818;9.312;2022-08-19T05:48:09;21.20;99.90
18173;DHT22;9211;48.818;9.312;2022-08-19T05:50:37;21.20;99.90
18173;DHT22;9211;48.818;9.312;2022-08-19T05:53:06;21.20;99.90
18173;DHT22;9211;48.818;9.312;2022-08-19T05:55:34;21.30;99.90
18173;DHT22;9211;48.818;9.312;2022-08-19T05:58:02;21.30;99.90
18173;DHT22;9211;48.818;9.312;2022-08-19T06:00:29;21.30;99.90
18173;DHT22;9211;48.818;9.312;2022-08-19T06:02:56;21.20;99.90
18173;DHT22;9211;48.818;9.312;2022-08-19T06:05:25;21.30;99.90
18173;DHT22;9211;48.818;9.312;2022-08-19T06:07:52;21.30;99.90
18173;DHT22;9211;48.818;9.312;2022-08-19T06:10:21;21.20;99.90
18173;DHT22;9211;48.818;9.312;2022-08-19T06:12:49;21.20;99.90
18173;DHT22;9211;48.818;9.312;2022-08-19T06:15:16;21.20;99.90
18173;DHT22;9211;48.818;9.312;2022-08-19T06:17:43;21.10;99.90
18173;DHT22;9211;48.818;9.312;2022-08-19T06:20:12;21.10;99.90
18173;DHT22;9211;48.818;9.312;2022-08-19T06:22:41;21.10;99.90
18173;DHT22;9211;48.818;9.312;2022-08-19T06:25:09;21.10;99.90
18173;DHT22;9211;48.818;9.312;2022-08-19T06:27:37;21.10;99.90
18173;DHT22;9211;48.818;9.312;2022-08-19T06:30:05;21.10;99.90
18173;DHT22;9211;48.818;9.312;2022-08-19T06:32:33;21.00;99.90
18173;DHT22;9211;48.818;9.312;2022-08-19T06:35:00;21.00;99.90
18173;DHT22;9211;48.818;9.312;2022-08-19T06:37:27;21.10;99.90
18173;DHT22;9211;48.818;9.312;2022-08-19T06:39:54;21.00;99.90
18173;DHT22;9211;48.818;9.312;2022-08-19T06:42:21;21.10;99.90
18173;DHT22;9211;48.818;9.312;2022-08-19T06:44:49;21.10;99.90
18173;DHT22;9211;48.818;9.312;2022-08-19T06:47:18;21.10;99.90
18173;DHT22;9211;48.818;9.312;2022-08-19T06:49:45;21.00;99.90
18173;DHT22;9211;48.818;9.312;2022-08-19T06:52:14;21.00;99.90
18173;DHT22;9211;48.818;9.312;2022-08-19T06:54:41;20.90;99.90
18173;DHT22;9211;48.818;9.312;2022-08-19T06:57:08;21.00;99.90
18173;DHT22;9211;48.818;9.312;2022-08-19T06:59:40;21.00;99.90
18173;DHT22;9211;48.818;9.312;2022-08-19T07:02:09;21.10;99.90
18173;DHT22;9211;48.818;9.312;2022-08-19T07:04:36;21.10;99.90
18173;DHT22;9211;48.818;9.312;2022-08-19T07:07:06;21.10;99.90
18173;DHT22;9211;48.818;9.312;2022-08-19T07:09:35;21.20;99.90
18173;DHT22;9211;48.818;9.312;2022-08-19T07:12:04;21.20;99.90
18173;DHT22;9211;48.818;9.312;2022-08-19T07:14:33;21.30;99.90
18173;DHT22;9211;48.818;9.312;2022-08-19T07:17:01;21.20;99.90
18173;DHT22;9211;48.818;9.312;2022-08-19T07:19:32;21.30;99.90
18173;DHT22;9211;48.818;9.312;2022-08-19T07:22:02;21.20;99.90
18173;DHT22;9211;48.818;9.312;2022-08-19T07:24:30;21.10;99.90
18173;DHT22;9211;48.818;9.312;2022-08-19T07:26:59;21.10;99.90
18173;DHT22;9211;48.818;9.312;2022-08-19T07:29:28;21.20;99.90
18173;DHT22;9211;48.818;9.312;2022-08-19T07:31:56;21.20;99.90
18173;DHT22;9211;48.818;9.312;2022-08-19T07:34:25;21.30;99.90
18173;DHT22;9211;48.818;9.312;2022-08-19T07:36:54;21.30;99.90
18173;DHT22;9211;48.818;9.312;2022-08-19T07:39:23;21.30;99.90
18173;DHT22;9211;48.818;9.312;2022-08-19T07:41:51;21.40;99.90
18173;DHT22;9211;48.818;9.312;2022-08-19T07:44:20;21.40;99.90
18173;DHT22;9211;48.818;9.312;2022-08-19T07:46:49;21.30;99.90
18173;DHT22;9211;48.818;9.312;2022-08-19T07:49:17;21.30;99.90
18173;DHT22;9211;48.818;9.312;2022-08-19T07:51:45;21.20;99.90
18173;DHT22;9211;48.818;9.312;2022-08-19T07:54:14;21.20;99.90
18173;DHT22;9211;48.818;9.312;2022-08-19T07:56:41;21.10;99.90
18173;DHT22;9211;48.818;9.312;2022-08-19T07:59:08;21.10;99.90
18173;DHT22;9211;48.818;9.312;2022-08-19T08:01:36;21.10;99.90
18173;DHT22;9211;48.818;9.312;2022-08-19T08:04:06;21.10;99.90
18173;DHT22;9211;48.818;9.312;2022-08-19T08:06:51;21.00;99.90
18173;DHT22;9211;48.818;9.312;2022-08-19T08:09:40;21.10;99.90
18173;DHT22;9211;48.818;9.312;2022-08-19T08:12:11;21.10;99.90
18173;DHT22;9211;48.818;9.312;2022-08-19T08:14:42;21.10;99.90
18173;DHT22;9211;48.818;9.312;2022-08-19T08:17:10;21.10;99.90
18173;DHT22;9211;48.818;9.312;2022-08-19T08:19:38;21.10;99.90
18173;DHT22;9211;48.818;9.312;2022-08-19T08:22:08;21.10;99.90
18173;DHT22;9211;48.818;9.312;2022-08-19T08:24:56;21.00;99.90
18173;DHT22;9211;48.818;9.312;2022-08-19T08:27:27;21.00;99.90
18173;DHT22;9211;48.818;9.312;2022-08-19T08:29:56;21.10;99.90
18173;DHT22;9211;48.818;9.312;2022-08-19T08:32:23;21.00;99.90
18173;DHT22;9211;48.818;9.312;2022-08-19T08:34:50;21.10;99.90
18173;DHT22;9211;48.818;9.312;2022-08-19T08:37:19;21.20;99.90
18173;DHT22;9211;48.818;9.312;2022-08-19T08:39:47;21.20;99.90
18173;DHT22;9211;48.818;9.312;2022-08-19T08:42:22;21.30;99.90
18173;DHT22;9211;48.818;9.312;2022-08-19T08:44:58;21.30;99.90
18173;DHT22;9211;48.818;9.312;2022-08-19T08:47:30;21.30;99.90
18173;DHT22;9211;48.818;9.312;2022-08-19T08:50:03;21.40;99.90
18173;DHT22;9211;48.818;9.312;2022-08-19T08:52:33;21.50;99.90
18173;DHT22;9211;48.818;9.312;2022-08-19T08:55:06;21.50;99.90
18173;DHT22;9211;48.818;9.312;2022-08-19T08:57:38;21.50;99.90
18173;DHT22;9211;48.818;9.312;2022-08-19T09:00:09;21.50;99.90
18173;DHT22;9211;48.818;9.312;2022-08-19T09:02:38;21.60;99.90
18173;DHT22;9211;48.818;9.312;2022-08-19T09:05:06;21.50;99.90
18173;DHT22;9211;48.818;9.312;2022-08-19T09:07:42;21.50;99.90
18173;DHT22;9211;48.818;9.312;2022-08-19T09:10:27;21.40;99.90
18173;DHT22;9211;48.818;9.312;2022-08-19T09:13:03;21.40;99.90
18173;DHT22;9211;48.818;9.312;2022-08-19T09:15:34;21.30;99.90
18173;DHT22;9211;48.818;9.312;2022-08-19T09:18:04;21.30;99.90
18173;DHT22;9211;48.818;9.312;2022-08-19T09:20:32;21.40;99.90
18173;DHT22;9211;48.818;9.312;2022-08-19T09:22:58;21.40;99.90
18173;DHT22;9211;48.818;9.312;2022-08-19T09:25:26;21.40;99.90
18173;DHT22;9211;48.818;9.312;2022-08-19T09:27:54;21.40;99.90
18173;DHT22;9211;48.818;9.312;2022-08-19T09:30:25;21.30;99.90
18173;DHT22;9211;48.818;9.312;2022-08-19T09:32:53;21.30;99.90
18173;DHT22;9211;48.818;9.312;2022-08-19T09:35:21;21.40;99.90
18173;DHT22;9211;48.818;9.312;2022-08-19T09:37:48;21.40;99.90
18173;DHT22;9211;48.818;9.312;2022-08-19T09:40:16;21.40;99.90
18173;DHT22;9211;48.818;9.312;2022-08-19T09:42:44;21.40;99.90
18173;DHT22;9211;48.818;9.312;2022-08-19T09:45:13;21.50;99.90
18173;DHT22;9211;48.818;9.312;2022-08-19T09:47:43;21.50;99.90
18173;DHT22;9211;48.818;9.312;2022-08-19T09:50:12;21.40;99.90
18173;DHT22;9211;48.818;9.312;2022-08-19T09:52:39;21.40;99.90
18173;DHT22;9211;48.818;9.312;2022-08-19T09:55:09;21.40;99.90
18173;DHT22;9211;48.818;9.312;2022-08-19T09:57:37;21.40;99.90
18173;DHT22;9211;48.818;9.312;2022-08-19T10:00:06;21.30;99.90
18173;DHT22;9211;48.818;9.312;2022-08-19T10:02:34;21.30;99.90
18173;DHT22;9211;48.818;9.312;2022-08-19T10:05:04;21.30;99.90
18173;DHT22;9211;48.818;9.312;2022-08-19T10:07:48;21.20;99.90
18173;DHT22;9211;48.818;9.312;2022-08-19T10:10:16;21.20;99.90
18173;DHT22;9211;48.818;9.312;2022-08-19T10:12:43;21.20;99.90
18173;DHT22;9211;48.818;9.312;2022-08-19T10:15:13;21.20;99.90
18173;DHT22;9211;48.818;9.312;2022-08-19T10:17:41;21.20;99.90
18173;DHT22;9211;48.818;9.312;2022-08-19T10:20:10;21.10;99.90
18173;DHT22;9211;48.818;9.312;2022-08-19T10:22:37;21.10;99.90
18173;DHT22;9211;48.818;9.312;2022-08-19T10:25:05;21.20;99.90
18173;DHT22;9211;48.818;9.312;2022-08-19T10:27:33;21.20;99.90
18173;DHT22;9211;48.818;9.312;2022-08-19T10:30:00;21.20;99.90
18173;DHT22;9211;48.818;9.312;2022-08-19T10:32:27;21.20;99.90
18173;DHT22;9211;48.818;9.312;2022-08-19T10:34:55;21.20;99.90
18173;DHT22;9211;48.818;9.312;2022-08-19T10:37:24;21.20;99.90
18173;DHT22;9211;48.818;9.312;2022-08-19T10:39:51;21.30;99.90
18173;DHT22;9211;48.818;9.312;2022-08-19T10:42:18;21.30;99.90
18173;DHT22;9211;48.818;9.312;2022-08-19T10:44:46;21.30;99.90
18173;DHT22;9211;48.818;9.312;2022-08-19T10:47:14;21.30;99.90
18173;DHT22;9211;48.818;9.312;2022-08-19T10:49:41;21.30;99.90
18173;DHT22;9211;48.818;9.312;2022-08-19T10:52:23;21.30;99.90
18173;DHT22;9211;48.818;9.312;2022-08-19T10:55:00;21.20;99.90
18173;DHT22;9211;48.818;9.312;2022-08-19T10:57:44;21.20;99.90
18173;DHT22;9211;48.818;9.312;2022-08-19T11:00:12;21.20;99.90
18173;DHT22;9211;48.818;9.312;2022-08-19T11:02:40;21.20;99.90
18173;DHT22;9211;48.818;9.312;2022-08-19T11:05:08;21.30;99.90
18173;DHT22;9211;48.818;9.312;2022-08-19T11:07:38;21.30;99.90
18173;DHT22;9211;48.818;9.312;2022-08-19T11:10:06;21.40;99.90
18173;DHT22;9211;48.818;9.312;2022-08-19T11:12:33;21.50;99.90
18173;DHT22;9211;48.818;9.312;2022-08-19T11:15:00;21.50;99.90
18173;DHT22;9211;48.818;9.312;2022-08-19T11:17:27;21.60;99.90
18173;DHT22;9211;48.818;9.312;2022-08-19T11:19:55;21.60;99.90
18173;DHT22;9211;48.818;9.312;2022-08-19T11:22:22;21.70;99.90
18173;DHT22;9211;48.818;9.312;2022-08-19T11:24:50;21.70;99.90
18173;DHT22;9211;48.818;9.312;2022-08-19T11:27:18;21.70;99.90
18173;DHT22;9211;48.818;9.312;2022-08-19T11:29:45;21.80;99.90
18173;DHT22;9211;48.818;9.312;2022-08-19T11:32:12;21.90;99.90
18173;DHT22;9211;48.818;9.312;2022-08-19T11:34:40;22.00;99.90
18173;DHT22;9211;48.818;9.312;2022-08-19T11:37:07;22.10;99.90
18173;DHT22;9211;48.818;9.312;2022-08-19T11:39:35;22.10;99.90
18173;DHT22;9211;48.818;9.312;2022-08-19T11:42:05;22.20;99.90
18173;DHT22;9211;48.818;9.312;2022-08-19T11:44:54;22.20;99.90
18173;DHT22;9211;48.818;9.312;2022-08-19T11:47:21;22.20;99.90
18173;DHT22;9211;48.818;9.312;2022-08-19T11:49:48;22.30;99.90
18173;DHT22;9211;48.818;9.312;2022-08-19T11:52:15;22.30;99.90
18173;DHT22;9211;48.818;9.312;2022-08-19T11:54:42;22.30;99.90
18173;DHT22;9211;48.818;9.312;2022-08-19T11:57:11;22.20;99.90
18173;DHT22;9211;48.818;9.312;2022-08-19T11:59:40;22.20;99.90
18173;DHT22;9211;48.818;9.312;2022-08-19T12:02:07;22.20;99.90
18173;DHT22;9211;48.818;9.312;2022-08-19T12:04:34;22.10;99.90
18173;DHT22;9211;48.818;9.312;2022-08-19T12:07:01;22.20;99.90
18173;DHT22;9211;48.818;9.312;2022-08-19T12:09:28;22.20;99.90
18173;DHT22;9211;48.818;9.312;2022-08-19T12:11:57;22.20;99.90
18173;DHT22;9211;48.818;9.312;2022-08-19T12:14:26;22.30;99.90
18173;DHT22;9211;48.818;9.312;2022-08-19T12:16:53;22.30;99.90
18173;DHT22;9211;48.818;9.312;2022-08-19T12:19:20;22.40;99.90
18173;DHT22;9211;48.818;9.312;2022-08-19T12:21:47;22.40;99.90
18173;DHT22;9211;48.818;9.312;2022-08-19T12:24:14;22.40;99.90
18173;DHT22;9211;48.818;9.312;2022-08-19T12:26:41;22.40;99.90
18173;DHT22;9211;48.818;9.312;2022-08-19T12:29:08;22.50;99.90
18173;DHT22;9211;48.818;9.312;2022-08-19T12:31:36;22.50;99.90
18173;DHT22;9211;48.818;9.312;2022-08-19T12:34:03;22.50;99.90
18173;DHT22;9211;48.818;9.312;2022-08-19T12:36:30;22.50;99.90
18173;DHT22;9211;48.818;9.312;2022-08-19T12:38:58;22.60;99.90
18173;DHT22;9211;48.818;9.312;2022-08-19T12:41:26;22.60;99.90
18173;DHT22;9211;48.818;9.312;2022-08-19T12:43:53;22.60;99.90
18173;DHT22;9211;48.818;9.312;2022-08-19T12:46:20;22.60;99.90
18173;DHT22;9211;48.818;9.312;2022-08-19T12:48:48;22.50;99.90
18173;DHT22;9211;48.818;9.312;2022-08-19T12:51:18;22.50;99.90
18173;DHT22;9211;48.818;9.312;2022-08-19T12:53:45;22.40;99.90
18173;DHT22;9211;48.818;9.312;2022-08-19T12:56:13;22.30;99.90
18173;DHT22;9211;48.818;9.312;2022-08-19T12:58:41;22.20;99.90
18173;DHT22;9211;48.818;9.312;2022-08-19T13:01:10;22.20;99.90
18173;DHT22;9211;48.818;9.312;2022-08-19T13:03:38;22.10;99.90
18173;DHT22;9211;48.818;9.312;2022-08-19T13:06:07;22.10;99.90
18173;DHT22;9211;48.818;9.312;2022-08-19T13:08:35;22.00;99.90
18173;DHT22;9211;48.818;9.312;2022-08-19T13:11:09;22.00;99.90
18173;DHT22;9211;48.818;9.312;2022-08-19T13:13:38;21.90;99.90
18173;DHT22;9211;48.818;9.312;2022-08-19T13:16:07;21.90;99.90
18173;DHT22;9211;48.818;9.312;2022-08-19T13:18:34;21.80;99.90
18173;DHT22;9211;48.818;9.312;2022-08-19T13:21:02;21.80;99.90
18173;DHT22;9211;48.818;9.312;2022-08-19T13:23:31;21.70;99.90
18173;DHT22;9211;48.818;9.312;2022-08-19T13:26:00;21.70;99.90
18173;DHT22;9211;48.818;9.312;2022-08-19T13:28:27;21.70;99.90
18173;DHT22;9211;48.818;9.312;2022-08-19T13:31:16;21.70;99.90
18173;DHT22;9211;48.818;9.312;2022-08-19T13:34:00;21.70;99.90
18173;DHT22;9211;48.818;9.312;2022-08-19T13:36:27;21.70;99.90
18173;DHT22;9211;48.818;9.312;2022-08-19T13:38:56;21.70;99.90
18173;DHT22;9211;48.818;9.312;2022-08-19T13:41:23;21.60;99.90
18173;DHT22;9211;48.818;9.312;2022-08-19T13:43:50;21.60;99.90
18173;DHT22;9211;48.818;9.312;2022-08-19T13:46:17;21.60;99.90
18173;DHT22;9211;48.818;9.312;2022-08-19T13:48:45;21.60;99.90
18173;DHT22;9211;48.818;9.312;2022-08-19T13:51:13;21.50;99.90
18173;DHT22;9211;48.818;9.312;2022-08-19T13:53:41;21.60;99.90
18173;DHT22;9211;48.818;9.312;2022-08-19T13:56:15;21.60;99.90
18173;DHT22;9211;48.818;9.312;2022-08-19T13:58:42;21.60;99.90
18173;DHT22;9211;48.818;9.312;2022-08-19T14:01:09;21.60;99.90
18173;DHT22;9211;48.818;9.312;2022-08-19T14:03:37;21.60;99.90
18173;DHT22;9211;48.818;9.312;2022-08-19T14:06:05;21.50;99.90
18173;DHT22;9211;48.818;9.312;2022-08-19T14:08:32;21.50;99.90
18173;DHT22;9211;48.818;9.312;2022-08-19T14:10:59;21.60;99.90
18173;DHT22;9211;48.818;9.312;2022-08-19T14:13:27;21.50;99.90
18173;DHT22;9211;48.818;9.312;2022-08-19T14:15:54;21.50;99.90
18173;DHT22;9211;48.818;9.312;2022-08-19T14:18:21;21.50;99.90
18173;DHT22;9211;48.818;9.312;2022-08-19T14:20:50;21.60;99.90
18173;DHT22;9211;48.818;9.312;2022-08-19T14:23:18;21.60;99.90
18173;DHT22;9211;48.818;9.312;2022-08-19T14:25:45;21.50;99.90
18173;DHT22;9211;48.818;9.312;2022-08-19T14:28:13;21.50;99.90
18173;DHT22;9211;48.818;9.312;2022-08-19T14:30:41;21.50;99.90
18173;DHT22;9211;48.818;9.312;2022-08-19T14:33:10;21.50;99.90
18173;DHT22;9211;48.818;9.312;2022-08-19T14:35:37;21.50;99.90
18173;DHT22;9211;48.818;9.312;2022-08-19T14:38:15;21.40;99.90
18173;DHT22;9211;48.818;9.312;2022-08-19T14:40:43;21.40;99.90
18173;DHT22;9211;48.818;9.312;2022-08-19T14:43:11;21.40;99.90
18173;DHT22;9211;48.818;9.312;2022-08-19T14:45:40;21.40;99.90
18173;DHT22;9211;48.818;9.312;2022-08-19T14:48:08;21.40;99.90
18173;DHT22;9211;48.818;9.312;2022-08-19T14:50:36;21.30;99.90
18173;DHT22;9211;48.818;9.312;2022-08-19T14:53:06;21.30;99.90
18173;DHT22;9211;48.818;9.312;2022-08-19T14:55:34;21.30;99.90
18173;DHT22;9211;48.818;9.312;2022-08-19T14:58:01;21.30;99.90
18173;DHT22;9211;48.818;9.312;2022-08-19T15:00:28;21.20;99.90
18173;DHT22;9211;48.818;9.312;2022-08-19T15:02:57;21.20;99.90
18173;DHT22;9211;48.818;9.312;2022-08-19T15:05:24;21.20;99.90
18173;DHT22;9211;48.818;9.312;2022-08-19T15:07:52;21.30;99.90
18173;DHT22;9211;48.818;9.312;2022-08-19T15:10:23;21.30;99.90
18173;DHT22;9211;48.818;9.312;2022-08-19T15:12:50;21.30;99.90
18173;DHT22;9211;48.818;9.312;2022-08-19T15:15:18;21.30;99.90
18173;DHT22;9211;48.818;9.312;2022-08-19T15:17:45;21.30;99.90
18173;DHT22;9211;48.818;9.312;2022-08-19T15:20:18;21.30;99.90
18173;DHT22;9211;48.818;9.312;2022-08-19T15:22:46;21.30;99.90
18173;DHT22;9211;48.818;9.312;2022-08-19T15:25:16;21.40;99.90
18173;DHT22;9211;48.818;9.312;2022-08-19T15:27:44;21.30;99.90
18173;DHT22;9211;48.818;9.312;2022-08-19T15:30:12;21.40;99.90
18173;DHT22;9211;48.818;9.312;2022-08-19T15:32:39;21.40;99.90
18173;DHT22;9211;48.818;9.312;2022-08-19T15:35:07;21.40;99.90
18173;DHT22;9211;48.818;9.312;2022-08-19T15:37:35;21.30;99.90
18173;DHT22;9211;48.818;9.312;2022-08-19T15:40:04;21.30;99.90
18173;DHT22;9211;48.818;9.312;2022-08-19T15:42:32;21.30;99.90
18173;DHT22;9211;48.818;9.312;2022-08-19T15:44:58;21.30;99.90
18173;DHT22;9211;48.818;9.312;2022-08-19T15:47:28;21.30;99.90
18173;DHT22;9211;48.818;9.312;2022-08-19T15:49:55;21.30;99.90
18173;DHT22;9211;48.818;9.312;2022-08-19T15:52:22;21.30;99.90
18173;DHT22;9211;48.818;9.312;2022-08-19T15:54:50;21.30;99.90